createdAt,value
2018-02-18T00:00:19.672Z,0.00
2018-02-18T00:01:19.665Z,0.00
2018-02-18T00:02:19.628Z,0.00
2018-02-18T00:03:19.608Z,0.00
2018-02-18T00:04:19.605Z,0.00
2018-02-18T00:05:19.570Z,0.00
2018-02-18T00:06:19.548Z,0.00
2018-02-18T00:07:19.554Z,0.00
2018-02-18T00:08:19.523Z,0.00
2018-02-18T00:09:19.489Z,0.00
2018-02-18T00:10:19.465Z,0.00
2018-02-18T00:11:19.464Z,0.00
2018-02-18T00:12:19.428Z,0.00
2018-02-18T00:13:19.406Z,0.00
2018-02-18T00:14:19.386Z,0.00
2018-02-18T00:15:19.365Z,0.00
2018-02-18T00:16:19.347Z,0.00
2018-02-18T00:17:19.341Z,0.00
2018-02-18T00:18:19.304Z,0.00
2018-02-18T00:19:19.296Z,0.00
2018-02-18T00:20:19.264Z,0.00
2018-02-18T00:21:19.242Z,0.00
2018-02-18T00:22:19.225Z,0.00
2018-02-18T00:23:19.224Z,0.00
2018-02-18T00:24:19.184Z,0.00
2018-02-18T00:25:19.166Z,0.00
2018-02-18T00:26:19.143Z,0.00
2018-02-18T00:27:19.118Z,0.00
2018-02-18T00:28:20.831Z,0.00
2018-02-18T00:29:19.097Z,0.00
2018-02-18T00:30:19.066Z,0.00
2018-02-18T00:31:19.041Z,0.00
2018-02-18T00:32:19.042Z,0.00
2018-02-18T00:33:19.004Z,0.00
2018-02-18T00:34:18.981Z,0.00
2018-02-18T00:35:18.962Z,0.00
2018-02-18T00:36:18.938Z,0.00
2018-02-18T00:37:18.921Z,0.00
2018-02-18T00:38:18.912Z,0.00
2018-02-18T00:39:18.882Z,0.00
2018-02-18T00:40:18.858Z,0.00
2018-02-18T00:41:18.846Z,0.00
2018-02-18T00:42:19.369Z,0.00
2018-02-18T00:43:18.798Z,0.00
2018-02-18T00:44:18.795Z,0.00
2018-02-18T00:45:18.760Z,0.00
2018-02-18T00:46:18.737Z,0.00
2018-02-18T00:47:18.730Z,0.00
2018-02-18T00:48:18.695Z,0.00
2018-02-18T00:49:18.694Z,0.00
2018-02-18T00:50:18.653Z,0.00
2018-02-18T00:51:18.632Z,0.00
2018-02-18T00:52:18.616Z,0.00
2018-02-18T00:53:18.610Z,0.00
2018-02-18T00:54:18.571Z,0.00
2018-02-18T00:55:18.553Z,0.00
2018-02-18T00:56:18.534Z,0.00
2018-02-18T00:57:18.511Z,0.00
2018-02-18T00:58:18.491Z,0.00
2018-02-18T00:59:18.481Z,0.00
2018-02-18T01:00:18.451Z,0.00
2018-02-18T01:01:18.430Z,0.00
2018-02-18T01:02:18.408Z,0.00
2018-02-18T01:03:18.382Z,0.00
2018-02-18T01:04:18.384Z,0.00
2018-02-18T01:05:18.363Z,0.00
2018-02-18T01:06:18.325Z,0.00
2018-02-18T01:07:18.302Z,0.00
2018-02-18T01:08:18.284Z,0.00
2018-02-18T01:09:18.261Z,0.00
2018-02-18T01:10:18.260Z,0.00
2018-02-18T01:11:18.220Z,0.00
2018-02-18T01:12:18.210Z,0.00
2018-02-18T01:13:18.180Z,0.00
2018-02-18T01:14:18.156Z,0.00
2018-02-18T01:15:18.137Z,0.00
2018-02-18T01:16:18.129Z,0.00
2018-02-18T01:17:18.110Z,0.00
2018-02-18T01:18:18.073Z,0.00
2018-02-18T01:19:18.054Z,0.00
2018-02-18T01:20:18.035Z,0.00
2018-02-18T01:21:18.015Z,0.00
2018-02-18T01:22:18.010Z,0.00
2018-02-18T01:23:17.974Z,0.00
2018-02-18T01:24:17.952Z,0.00
2018-02-18T01:25:17.931Z,0.00
2018-02-18T01:26:17.910Z,0.00
2018-02-18T01:27:17.894Z,0.00
2018-02-18T01:28:17.886Z,0.00
2018-02-18T01:29:17.846Z,0.00
2018-02-18T01:30:17.826Z,0.00
2018-02-18T01:31:17.804Z,0.00
2018-02-18T01:32:17.786Z,0.00
2018-02-18T01:33:17.767Z,0.00
2018-02-18T01:34:17.757Z,0.00
2018-02-18T01:35:17.731Z,0.00
2018-02-18T01:36:18.334Z,0.00
2018-02-18T01:37:17.683Z,0.00
2018-02-18T01:38:17.658Z,0.00
2018-02-18T01:39:17.655Z,0.00
2018-02-18T01:40:17.615Z,0.00
2018-02-18T01:41:17.596Z,0.00
2018-02-18T01:42:17.576Z,0.00
2018-02-18T01:43:17.554Z,0.00
2018-02-18T01:44:17.538Z,0.00
2018-02-18T01:45:17.527Z,0.00
2018-02-18T01:46:17.494Z,0.00
2018-02-18T01:47:17.468Z,0.00
2018-02-18T01:48:19.334Z,0.00
2018-02-18T01:49:17.428Z,0.00
2018-02-18T01:50:17.403Z,0.00
2018-02-18T01:51:17.399Z,0.00
2018-02-18T01:52:17.364Z,0.00
2018-02-18T01:53:17.340Z,0.00
2018-02-18T01:54:17.321Z,0.00
2018-02-18T01:55:17.316Z,0.00
2018-02-18T01:56:17.280Z,0.00
2018-02-18T01:57:17.261Z,0.00
2018-02-18T01:58:17.239Z,0.00
2018-02-18T01:59:17.216Z,0.00
2018-02-18T02:00:17.195Z,0.00
2018-02-18T02:01:17.196Z,0.00
2018-02-18T02:02:17.200Z,0.00
2018-02-18T02:03:17.131Z,0.00
2018-02-18T02:04:17.109Z,0.00
2018-02-18T02:05:17.091Z,0.00
2018-02-18T02:06:17.083Z,0.00
2018-02-18T02:07:17.047Z,0.00
2018-02-18T02:08:17.023Z,0.00
2018-02-18T02:09:17.004Z,0.00
2018-02-18T02:10:16.982Z,0.00
2018-02-18T02:11:16.961Z,0.00
2018-02-18T02:12:16.956Z,0.00
2018-02-18T02:13:16.918Z,0.00
2018-02-18T02:14:16.915Z,0.00
2018-02-18T02:15:16.880Z,0.00
2018-02-18T02:16:16.860Z,0.00
2018-02-18T02:17:16.837Z,0.00
2018-02-18T02:18:16.812Z,0.00
2018-02-18T02:19:16.795Z,0.00
2018-02-18T02:20:16.789Z,0.00
2018-02-18T02:21:16.755Z,0.00
2018-02-18T02:22:16.748Z,0.00
2018-02-18T02:23:16.710Z,0.00
2018-02-18T02:24:16.688Z,0.00
2018-02-18T02:25:16.668Z,0.00
2018-02-18T02:26:16.651Z,0.00
2018-02-18T02:27:16.626Z,0.00
2018-02-18T02:28:16.620Z,0.00
2018-02-18T02:29:16.598Z,0.00
2018-02-18T02:30:16.562Z,0.00
2018-02-18T02:31:16.542Z,0.00
2018-02-18T02:32:16.524Z,0.00
2018-02-18T02:33:16.504Z,0.00
2018-02-18T02:34:16.493Z,0.00
2018-02-18T02:35:16.456Z,0.00
2018-02-18T02:36:16.438Z,0.00
2018-02-18T02:37:16.416Z,0.00
2018-02-18T02:38:16.406Z,0.00
2018-02-18T02:39:16.375Z,0.00
2018-02-18T02:40:16.354Z,0.00
2018-02-18T02:41:16.339Z,0.00
2018-02-18T02:42:16.311Z,0.00
2018-02-18T02:43:16.305Z,0.00
2018-02-18T02:44:16.277Z,0.00
2018-02-18T02:45:16.256Z,0.00
2018-02-18T02:46:16.875Z,0.00
2018-02-18T02:47:16.207Z,0.00
2018-02-18T02:48:16.200Z,0.00
2018-02-18T02:49:16.174Z,0.00
2018-02-18T02:50:16.142Z,0.00
2018-02-18T02:51:16.135Z,0.00
2018-02-18T02:52:16.156Z,0.00
2018-02-18T02:53:16.078Z,0.00
2018-02-18T02:54:16.076Z,0.00
2018-02-18T02:55:16.040Z,0.00
2018-02-18T02:56:16.013Z,0.00
2018-02-18T02:57:16.010Z,0.00
2018-02-18T02:58:15.973Z,0.00
2018-02-18T02:59:15.952Z,0.00
2018-02-18T03:00:15.933Z,0.00
2018-02-18T03:01:15.917Z,0.00
2018-02-18T03:02:15.892Z,0.00
2018-02-18T03:03:15.886Z,0.00
2018-02-18T03:04:15.846Z,0.00
2018-02-18T03:05:16.370Z,0.00
2018-02-18T03:06:15.804Z,0.00
2018-02-18T03:07:15.786Z,0.00
2018-02-18T03:08:15.766Z,0.00
2018-02-18T03:09:15.757Z,0.00
2018-02-18T03:10:15.722Z,0.00
2018-02-18T03:11:15.700Z,0.00
2018-02-18T03:12:15.677Z,0.00
2018-02-18T03:13:15.662Z,0.00
2018-02-18T03:14:15.653Z,0.00
2018-02-18T03:15:15.617Z,0.00
2018-02-18T03:16:15.596Z,0.00
2018-02-18T03:17:15.574Z,0.00
2018-02-18T03:18:15.572Z,0.00
2018-02-18T03:19:15.544Z,0.00
2018-02-18T03:20:15.509Z,0.00
2018-02-18T03:21:15.490Z,0.00
2018-02-18T03:22:15.466Z,0.00
2018-02-18T03:23:17.337Z,0.00
2018-02-18T03:24:15.424Z,0.00
2018-02-18T03:25:15.400Z,0.00
2018-02-18T03:26:15.396Z,0.00
2018-02-18T03:27:15.876Z,0.00
2018-02-18T03:28:15.359Z,0.00
2018-02-18T03:29:15.320Z,0.00
2018-02-18T03:30:15.299Z,0.00
2018-02-18T03:31:15.277Z,0.00
2018-02-18T03:32:15.275Z,0.00
2018-02-18T03:33:15.232Z,0.00
2018-02-18T03:34:15.211Z,0.00
2018-02-18T03:35:15.193Z,0.00
2018-02-18T03:36:15.190Z,0.00
2018-02-18T03:37:15.149Z,0.00
2018-02-18T03:38:15.144Z,0.00
2018-02-18T03:39:15.111Z,0.00
2018-02-18T03:40:15.084Z,0.00
2018-02-18T03:41:15.080Z,0.00
2018-02-18T03:42:15.039Z,0.00
2018-02-18T03:43:15.038Z,0.00
2018-02-18T03:44:14.997Z,0.00
2018-02-18T03:45:14.981Z,0.00
2018-02-18T03:46:15.838Z,0.00
2018-02-18T03:47:14.936Z,0.00
2018-02-18T03:48:14.930Z,0.00
2018-02-18T03:49:14.901Z,0.00
2018-02-18T03:50:14.876Z,0.00
2018-02-18T03:51:14.852Z,0.00
2018-02-18T03:52:14.847Z,0.00
2018-02-18T03:53:14.807Z,0.00
2018-02-18T03:54:14.787Z,0.00
2018-02-18T03:55:14.767Z,0.00
2018-02-18T03:56:14.743Z,0.00
2018-02-18T03:57:14.739Z,0.00
2018-02-18T03:58:14.708Z,0.00
2018-02-18T03:59:14.683Z,0.00
2018-02-18T04:00:15.374Z,0.00
2018-02-18T04:01:14.659Z,0.00
2018-02-18T04:02:14.619Z,0.00
2018-02-18T04:03:14.597Z,0.00
2018-02-18T04:04:14.577Z,0.00
2018-02-18T04:05:14.557Z,0.00
2018-02-18T04:06:14.537Z,0.00
2018-02-18T04:07:14.538Z,0.00
2018-02-18T04:08:14.491Z,0.00
2018-02-18T04:09:14.468Z,0.00
2018-02-18T04:10:14.448Z,0.00
2018-02-18T04:11:14.426Z,0.00
2018-02-18T04:12:14.407Z,0.00
2018-02-18T04:13:14.417Z,0.00
2018-02-18T04:14:14.362Z,0.00
2018-02-18T04:15:14.343Z,0.00
2018-02-18T04:16:14.320Z,0.00
2018-02-18T04:17:14.301Z,0.00
2018-02-18T04:18:14.275Z,0.00
2018-02-18T04:19:14.271Z,0.00
2018-02-18T04:20:14.253Z,0.00
2018-02-18T04:21:14.217Z,0.00
2018-02-18T04:22:14.197Z,0.00
2018-02-18T04:23:14.169Z,0.00
2018-02-18T04:24:14.433Z,0.00
2018-02-18T04:25:14.135Z,0.00
2018-02-18T04:26:15.839Z,0.00
2018-02-18T04:27:14.089Z,0.00
2018-02-18T04:28:14.065Z,0.00
2018-02-18T04:29:14.046Z,0.00
2018-02-18T04:30:14.038Z,0.00
2018-02-18T04:31:14.002Z,0.00
2018-02-18T04:32:14.045Z,0.00
2018-02-18T04:33:13.959Z,0.00
2018-02-18T04:34:13.941Z,0.00
2018-02-18T04:35:13.935Z,0.00
2018-02-18T04:36:13.896Z,0.00
2018-02-18T04:37:13.874Z,0.00
2018-02-18T04:38:13.853Z,0.00
2018-02-18T04:39:13.832Z,0.00
2018-02-18T04:40:13.830Z,0.00
2018-02-18T04:41:15.376Z,0.00
2018-02-18T04:42:13.768Z,0.00
2018-02-18T04:43:13.744Z,0.00
2018-02-18T04:44:13.725Z,0.00
2018-02-18T04:45:14.340Z,0.00
2018-02-18T04:46:15.340Z,0.00
2018-02-18T04:47:13.658Z,0.00
2018-02-18T04:48:13.640Z,0.00
2018-02-18T04:49:13.617Z,0.00
2018-02-18T04:50:13.597Z,0.00
2018-02-18T04:51:13.590Z,0.00
2018-02-18T04:52:13.573Z,0.00
2018-02-18T04:53:13.534Z,0.00
2018-02-18T04:54:13.515Z,0.00
2018-02-18T04:55:14.379Z,0.00
2018-02-18T04:56:13.474Z,0.00
2018-02-18T04:57:13.449Z,0.00
2018-02-18T04:58:13.441Z,0.00
2018-02-18T04:59:13.409Z,0.00
2018-02-18T05:00:13.385Z,0.00
2018-02-18T05:01:13.365Z,0.00
2018-02-18T05:02:13.337Z,0.00
2018-02-18T05:03:13.337Z,0.00
2018-02-18T05:04:13.298Z,0.00
2018-02-18T05:05:13.296Z,0.00
2018-02-18T05:06:13.255Z,0.00
2018-02-18T05:07:13.234Z,0.00
2018-02-18T05:08:13.216Z,0.00
2018-02-18T05:09:13.193Z,0.00
2018-02-18T05:10:13.172Z,0.00
2018-02-18T05:11:13.163Z,0.00
2018-02-18T05:12:13.130Z,0.00
2018-02-18T05:13:13.103Z,0.00
2018-02-18T05:14:13.102Z,0.00
2018-02-18T05:15:13.072Z,0.00
2018-02-18T05:16:13.043Z,0.00
2018-02-18T05:17:13.020Z,0.00
2018-02-18T05:18:13.001Z,0.00
2018-02-18T05:19:13.874Z,0.00
2018-02-18T05:20:12.960Z,0.00
2018-02-18T05:21:12.932Z,0.00
2018-02-18T05:22:13.876Z,0.00
2018-02-18T05:23:12.893Z,0.00
2018-02-18T05:24:12.891Z,0.00
2018-02-18T05:25:12.849Z,0.00
2018-02-18T05:26:12.847Z,0.00
2018-02-18T05:27:12.806Z,0.00
2018-02-18T05:28:12.784Z,0.00
2018-02-18T05:29:12.764Z,0.00
2018-02-18T05:30:12.744Z,0.00
2018-02-18T05:31:12.721Z,0.00
2018-02-18T05:32:12.713Z,0.00
2018-02-18T05:33:12.681Z,0.00
2018-02-18T05:34:12.658Z,0.00
2018-02-18T05:35:12.635Z,0.00
2018-02-18T05:36:12.628Z,0.00
2018-02-18T05:37:12.590Z,0.00
2018-02-18T05:38:12.571Z,0.00
2018-02-18T05:39:12.565Z,0.00
2018-02-18T05:40:12.532Z,0.00
2018-02-18T05:41:12.507Z,0.00
2018-02-18T05:42:12.485Z,0.00
2018-02-18T05:43:12.465Z,0.00
2018-02-18T05:44:12.453Z,0.00
2018-02-18T05:45:12.434Z,0.00
2018-02-18T05:46:12.399Z,0.00
2018-02-18T05:47:12.379Z,0.00
2018-02-18T05:48:12.357Z,0.00
2018-02-18T05:49:12.336Z,0.00
2018-02-18T05:50:12.324Z,0.00
2018-02-18T05:51:12.434Z,0.00
2018-02-18T05:52:12.275Z,0.00
2018-02-18T05:53:12.841Z,0.00
2018-02-18T05:54:12.230Z,0.00
2018-02-18T05:55:12.220Z,0.00
2018-02-18T05:56:12.184Z,0.00
2018-02-18T05:57:12.179Z,0.00
2018-02-18T05:58:12.144Z,0.00
2018-02-18T05:59:12.118Z,0.00
2018-02-18T06:00:12.874Z,0.00
2018-02-18T06:01:12.932Z,0.00
2018-02-18T06:02:12.841Z,0.00
2018-02-18T06:03:12.038Z,0.00
2018-02-18T06:04:12.016Z,0.00
2018-02-18T06:05:16.343Z,0.00
2018-02-18T06:06:11.970Z,0.00
2018-02-18T06:07:11.967Z,0.00
2018-02-18T06:08:11.930Z,0.00
2018-02-18T06:09:11.980Z,0.00
2018-02-18T06:10:11.884Z,0.00
2018-02-18T06:11:11.863Z,0.00
2018-02-18T06:12:12.377Z,4.00
2018-02-18T06:13:11.935Z,4.00
2018-02-18T06:14:11.800Z,0.00
2018-02-18T06:15:11.788Z,4.00
2018-02-18T06:16:11.755Z,0.00
2018-02-18T06:17:11.741Z,4.00
2018-02-18T06:18:11.711Z,4.00
2018-02-18T06:19:11.712Z,4.00
2018-02-18T06:20:11.673Z,4.00
2018-02-18T06:21:11.649Z,8.00
2018-02-18T06:22:11.629Z,8.00
2018-02-18T06:23:11.609Z,8.00
2018-02-18T06:24:11.587Z,12.00
2018-02-18T06:25:32.608Z,16.00
2018-02-18T06:26:11.543Z,16.00
2018-02-18T06:27:11.521Z,20.00
2018-02-18T06:28:11.505Z,24.00
2018-02-18T06:29:11.483Z,28.00
2018-02-18T06:30:13.842Z,32.00
2018-02-18T06:31:11.956Z,40.00
2018-02-18T06:32:11.422Z,44.00
2018-02-18T06:33:11.408Z,48.00
2018-02-18T06:34:11.373Z,52.00
2018-02-18T06:35:11.351Z,64.00
2018-02-18T06:36:11.348Z,68.00
2018-02-18T06:37:11.311Z,76.00
2018-02-18T06:38:11.337Z,84.00
2018-02-18T06:39:11.264Z,96.00
2018-02-18T06:40:11.246Z,104.00
2018-02-18T06:41:11.219Z,116.00
2018-02-18T06:42:11.216Z,124.00
2018-02-18T06:43:11.181Z,140.00
2018-02-18T06:44:11.158Z,148.00
2018-02-18T06:45:11.141Z,160.00
2018-02-18T06:46:11.119Z,176.00
2018-02-18T06:47:11.110Z,192.00
2018-02-18T06:48:11.084Z,204.00
2018-02-18T06:49:11.054Z,224.00
2018-02-18T06:50:11.029Z,240.00
2018-02-18T06:51:11.010Z,252.00
2018-02-18T06:52:10.987Z,268.00
2018-02-18T06:53:10.983Z,288.00
2018-02-18T06:54:10.942Z,304.00
2018-02-18T06:55:10.925Z,324.00
2018-02-18T06:56:10.901Z,340.00
2018-02-18T06:57:10.876Z,360.00
2018-02-18T06:58:10.859Z,380.00
2018-02-18T06:59:10.853Z,396.00
2018-02-18T07:00:10.831Z,412.00
2018-02-18T07:01:10.795Z,436.00
2018-02-18T07:02:10.772Z,452.00
2018-02-18T07:03:10.750Z,468.00
2018-02-18T07:04:10.731Z,492.00
2018-02-18T07:05:10.710Z,508.00
2018-02-18T07:06:10.706Z,532.00
2018-02-18T07:07:11.382Z,552.00
2018-02-18T07:08:10.645Z,580.00
2018-02-18T07:09:10.620Z,600.00
2018-02-18T07:10:10.626Z,624.00
2018-02-18T07:11:10.578Z,648.00
2018-02-18T07:12:10.576Z,672.00
2018-02-18T07:13:10.536Z,692.00
2018-02-18T07:14:10.517Z,712.00
2018-02-18T07:15:10.492Z,736.00
2018-02-18T07:16:10.483Z,756.00
2018-02-18T07:17:11.342Z,780.00
2018-02-18T07:18:10.429Z,800.00
2018-02-18T07:19:10.404Z,824.00
2018-02-18T07:20:10.385Z,840.00
2018-02-18T07:21:10.364Z,864.00
2018-02-18T07:22:10.356Z,888.00
2018-02-18T07:23:10.323Z,916.00
2018-02-18T07:24:10.300Z,932.00
2018-02-18T07:25:10.341Z,964.00
2018-02-18T07:26:10.256Z,988.00
2018-02-18T07:27:10.236Z,1016.00
2018-02-18T07:28:10.213Z,1036.00
2018-02-18T07:29:10.211Z,1068.00
2018-02-18T07:30:10.199Z,1088.00
2018-02-18T07:31:10.150Z,1108.00
2018-02-18T07:32:10.133Z,1116.00
2018-02-18T07:33:10.111Z,1136.00
2018-02-18T07:34:10.086Z,1168.00
2018-02-18T07:35:11.844Z,1188.00
2018-02-18T07:36:10.058Z,1196.00
2018-02-18T07:37:10.060Z,1228.00
2018-02-18T07:38:10.008Z,1248.00
2018-02-18T07:39:09.976Z,1288.00
2018-02-18T07:40:10.877Z,1308.00
2018-02-18T07:41:09.937Z,1360.00
2018-02-18T07:42:09.916Z,1376.00
2018-02-18T07:43:09.910Z,1400.00
2018-02-18T07:44:09.874Z,1444.00
2018-02-18T07:45:09.855Z,1496.00
2018-02-18T07:46:09.829Z,1524.00
2018-02-18T07:47:09.806Z,1528.00
2018-02-18T07:48:09.806Z,1552.00
2018-02-18T07:49:09.765Z,1568.00
2018-02-18T07:50:09.745Z,1560.00
2018-02-18T07:51:09.723Z,1608.00
2018-02-18T07:52:09.704Z,1640.00
2018-02-18T07:53:09.681Z,1648.00
2018-02-18T07:54:09.678Z,1704.00
2018-02-18T07:55:11.350Z,1708.00
2018-02-18T07:56:11.344Z,1724.00
2018-02-18T07:57:09.599Z,1752.00
2018-02-18T07:58:09.576Z,1820.00
2018-02-18T07:59:10.414Z,1872.00
2018-02-18T08:00:09.547Z,1884.00
2018-02-18T08:01:10.346Z,1888.00
2018-02-18T08:02:09.492Z,1884.00
2018-02-18T08:03:09.470Z,1924.00
2018-02-18T08:04:09.448Z,2044.00
2018-02-18T08:05:09.445Z,2208.00
2018-02-18T08:06:09.405Z,2280.00
2018-02-18T08:07:09.387Z,2224.00
2018-02-18T08:08:09.367Z,2344.00
2018-02-18T08:09:09.340Z,2356.00
2018-02-18T08:10:09.324Z,2292.00
2018-02-18T08:11:09.314Z,2356.00
2018-02-18T08:12:09.280Z,2496.00
2018-02-18T08:13:09.262Z,2520.00
2018-02-18T08:14:09.237Z,2456.00
2018-02-18T08:15:10.844Z,2396.00
2018-02-18T08:16:09.198Z,2228.00
2018-02-18T08:17:09.193Z,2232.00
2018-02-18T08:18:09.154Z,2384.00
2018-02-18T08:19:09.134Z,2496.00
2018-02-18T08:20:09.111Z,2716.00
2018-02-18T08:21:10.846Z,2644.00
2018-02-18T08:22:09.097Z,2684.00
2018-02-18T08:23:09.053Z,2732.00
2018-02-18T08:24:09.031Z,2840.00
2018-02-18T08:25:09.010Z,2972.00
2018-02-18T08:26:08.987Z,2924.00
2018-02-18T08:27:08.970Z,3176.00
2018-02-18T08:28:08.966Z,3408.00
2018-02-18T08:29:08.930Z,3604.00
2018-02-18T08:30:08.925Z,3700.00
2018-02-18T08:31:08.886Z,3948.00
2018-02-18T08:32:08.860Z,3976.00
2018-02-18T08:33:08.845Z,4000.00
2018-02-18T08:34:08.836Z,3908.00
2018-02-18T08:35:08.802Z,4124.00
2018-02-18T08:36:08.783Z,4180.00
2018-02-18T08:37:08.761Z,4176.00
2018-02-18T08:38:08.758Z,4096.00
2018-02-18T08:39:10.347Z,4184.00
2018-02-18T08:40:08.701Z,4304.00
2018-02-18T08:41:08.676Z,4316.00
2018-02-18T08:42:08.706Z,4528.00
2018-02-18T08:43:09.347Z,4628.00
2018-02-18T08:44:08.633Z,4860.00
2018-02-18T08:45:08.603Z,4988.00
2018-02-18T08:46:08.582Z,4956.00
2018-02-18T08:47:08.557Z,4888.00
2018-02-18T08:48:08.554Z,5112.00
2018-02-18T08:49:08.532Z,5388.00
2018-02-18T08:50:08.498Z,5672.00
2018-02-18T08:51:08.487Z,5320.00
2018-02-18T08:52:08.463Z,5320.00
2018-02-18T08:53:08.435Z,5528.00
2018-02-18T08:54:08.415Z,5440.00
2018-02-18T08:55:08.410Z,5068.00
2018-02-18T08:56:08.376Z,5112.00
2018-02-18T08:57:08.356Z,5500.00
2018-02-18T08:58:08.337Z,5424.00
2018-02-18T08:59:08.848Z,5276.00
2018-02-18T09:00:08.306Z,5512.00
2018-02-18T09:01:08.276Z,5624.00
2018-02-18T09:02:08.880Z,5308.00
2018-02-18T09:03:08.237Z,5188.00
2018-02-18T09:04:08.229Z,5036.00
2018-02-18T09:05:08.193Z,4820.00
2018-02-18T09:06:08.194Z,4472.00
2018-02-18T09:07:08.158Z,4392.00
2018-02-18T09:08:08.137Z,4608.00
2018-02-18T09:09:08.116Z,5192.00
2018-02-18T09:10:08.125Z,6020.00
2018-02-18T09:11:08.090Z,6960.00
2018-02-18T09:12:29.071Z,6868.00
2018-02-18T09:13:08.047Z,6200.00
2018-02-18T09:14:08.015Z,5180.00
2018-02-18T09:15:09.850Z,4596.00
2018-02-18T09:16:07.989Z,4532.00
2018-02-18T09:17:07.957Z,4504.00
2018-02-18T09:18:07.939Z,4584.00
2018-02-18T09:19:07.918Z,4504.00
2018-02-18T09:20:07.897Z,4408.00
2018-02-18T09:21:07.894Z,4220.00
2018-02-18T09:22:07.854Z,4180.00
2018-02-18T09:23:07.853Z,4068.00
2018-02-18T09:24:07.817Z,3960.00
2018-02-18T09:25:07.798Z,3932.00
2018-02-18T09:26:07.779Z,3960.00
2018-02-18T09:27:07.760Z,3948.00
2018-02-18T09:28:07.757Z,3948.00
2018-02-18T09:29:07.715Z,3924.00
2018-02-18T09:30:07.699Z,3952.00
2018-02-18T09:31:07.680Z,4084.00
2018-02-18T09:32:07.660Z,4112.00
2018-02-18T09:33:07.656Z,4156.00
2018-02-18T09:34:07.635Z,4216.00
2018-02-18T09:35:07.604Z,4276.00
2018-02-18T09:36:08.368Z,4208.00
2018-02-18T09:37:07.565Z,4124.00
2018-02-18T09:38:07.561Z,4120.00
2018-02-18T09:39:07.526Z,4220.00
2018-02-18T09:40:07.504Z,4200.00
2018-02-18T09:41:07.484Z,4240.00
2018-02-18T09:42:07.465Z,4212.00
2018-02-18T09:43:07.445Z,4176.00
2018-02-18T09:44:07.444Z,4120.00
2018-02-18T09:45:07.406Z,4076.00
2018-02-18T09:46:07.389Z,4092.00
2018-02-18T09:47:07.365Z,4104.00
2018-02-18T09:48:07.863Z,4180.00
2018-02-18T09:49:07.346Z,4336.00
2018-02-18T09:50:07.327Z,4452.00
2018-02-18T09:51:07.289Z,4576.00
2018-02-18T09:52:07.276Z,4684.00
2018-02-18T09:53:07.255Z,4748.00
2018-02-18T09:54:07.252Z,4904.00
2018-02-18T09:55:07.214Z,5008.00
2018-02-18T09:56:07.197Z,5172.00
2018-02-18T09:57:07.179Z,5188.00
2018-02-18T09:58:07.157Z,5184.00
2018-02-18T09:59:07.136Z,5236.00
2018-02-18T10:00:07.131Z,5340.00
2018-02-18T10:01:07.095Z,5332.00
2018-02-18T10:02:07.078Z,5392.00
2018-02-18T10:03:07.078Z,5436.00
2018-02-18T10:04:07.046Z,5496.00
2018-02-18T10:05:09.852Z,5596.00
2018-02-18T10:06:07.003Z,5552.00
2018-02-18T10:07:06.986Z,5648.00
2018-02-18T10:08:06.982Z,5704.00
2018-02-18T10:09:06.948Z,5736.00
2018-02-18T10:10:06.928Z,5844.00
2018-02-18T10:11:06.909Z,5964.00
2018-02-18T10:12:06.891Z,6000.00
2018-02-18T10:13:06.889Z,6152.00
2018-02-18T10:14:07.355Z,6200.00
2018-02-18T10:15:06.833Z,6256.00
2018-02-18T10:16:06.817Z,6748.00
2018-02-18T10:17:06.801Z,6516.00
2018-02-18T10:18:06.838Z,6320.00
2018-02-18T10:19:06.773Z,6472.00
2018-02-18T10:20:06.740Z,6488.00
2018-02-18T10:21:08.354Z,6384.00
2018-02-18T10:22:06.705Z,6340.00
2018-02-18T10:23:06.684Z,6308.00
2018-02-18T10:24:06.682Z,6420.00
2018-02-18T10:25:06.650Z,6428.00
2018-02-18T10:26:06.629Z,6220.00
2018-02-18T10:27:06.611Z,6208.00
2018-02-18T10:28:06.593Z,6020.00
2018-02-18T10:29:06.577Z,6040.00
2018-02-18T10:30:06.571Z,6004.00
2018-02-18T10:31:06.565Z,6048.00
2018-02-18T10:32:06.520Z,6148.00
2018-02-18T10:33:06.501Z,6276.00
2018-02-18T10:34:06.478Z,6352.00
2018-02-18T10:35:06.468Z,6456.00
2018-02-18T10:36:06.462Z,6552.00
2018-02-18T10:37:06.428Z,6644.00
2018-02-18T10:38:06.411Z,6508.00
2018-02-18T10:39:06.391Z,6600.00
2018-02-18T10:40:06.373Z,6708.00
2018-02-18T10:41:06.381Z,6848.00
2018-02-18T10:42:06.352Z,6972.00
2018-02-18T10:43:06.316Z,7364.00
2018-02-18T10:44:06.304Z,8076.00
2018-02-18T10:45:06.301Z,10180.00
2018-02-18T10:46:06.267Z,9100.00
2018-02-18T10:47:06.243Z,8492.00
2018-02-18T10:48:06.236Z,10792.00
2018-02-18T10:49:06.213Z,29152.00
2018-02-18T10:50:06.192Z,13684.00
2018-02-18T10:51:06.197Z,13296.00
2018-02-18T10:52:06.156Z,13564.00
2018-02-18T10:53:06.139Z,35264.00
2018-02-18T10:54:06.196Z,37376.00
2018-02-18T10:55:06.121Z,35456.00
2018-02-18T10:56:06.091Z,36448.00
2018-02-18T10:57:06.067Z,36096.00
2018-02-18T10:58:06.861Z,35424.00
2018-02-18T10:59:06.069Z,34656.00
2018-02-18T11:00:06.027Z,37472.00
2018-02-18T11:01:06.005Z,37792.00
2018-02-18T11:02:06.019Z,37472.00
2018-02-18T11:03:05.982Z,40192.00
2018-02-18T11:04:05.967Z,39712.00
2018-02-18T11:05:05.964Z,28832.00
2018-02-18T11:06:05.971Z,38176.00
2018-02-18T11:07:05.927Z,38208.00
2018-02-18T11:08:05.927Z,37088.00
2018-02-18T11:09:05.896Z,35296.00
2018-02-18T11:10:05.873Z,34336.00
2018-02-18T11:11:26.915Z,38400.00
2018-02-18T11:12:06.402Z,36256.00
2018-02-18T11:13:05.845Z,37664.00
2018-02-18T11:14:05.825Z,30304.00
2018-02-18T11:15:06.862Z,39200.00
2018-02-18T11:16:05.821Z,40064.00
2018-02-18T11:17:05.792Z,33248.00
2018-02-18T11:18:06.394Z,23936.00
2018-02-18T11:19:05.764Z,38816.00
2018-02-18T11:20:05.749Z,39040.00
2018-02-18T11:21:05.738Z,38912.00
2018-02-18T11:22:05.740Z,39072.00
2018-02-18T11:23:05.718Z,38752.00
2018-02-18T11:24:05.707Z,22176.00
2018-02-18T11:25:05.694Z,20320.00
2018-02-18T11:26:05.683Z,38048.00
2018-02-18T11:27:05.699Z,39520.00
2018-02-18T11:28:05.676Z,40288.00
2018-02-18T11:29:06.366Z,40192.00
2018-02-18T11:30:05.637Z,39072.00
2018-02-18T11:31:05.629Z,39392.00
2018-02-18T11:32:05.616Z,39520.00
2018-02-18T11:33:05.622Z,39840.00
2018-02-18T11:34:05.595Z,39008.00
2018-02-18T11:35:06.369Z,37920.00
2018-02-18T11:36:05.575Z,38592.00
2018-02-18T11:37:05.567Z,40064.00
2018-02-18T11:38:05.571Z,29984.00
2018-02-18T11:39:05.545Z,39328.00
2018-02-18T11:40:05.534Z,39136.00
2018-02-18T11:41:05.524Z,34336.00
2018-02-18T11:42:05.564Z,34976.00
2018-02-18T11:43:05.509Z,40512.00
2018-02-18T11:44:05.515Z,40608.00
2018-02-18T11:45:05.486Z,42784.00
2018-02-18T11:46:05.495Z,32512.00
2018-02-18T11:47:05.470Z,39392.00
2018-02-18T11:48:05.460Z,38112.00
2018-02-18T11:49:05.452Z,38336.00
2018-02-18T11:50:05.440Z,39456.00
2018-02-18T11:51:05.436Z,41056.00
2018-02-18T11:52:05.444Z,39552.00
2018-02-18T11:53:05.425Z,37984.00
2018-02-18T11:54:05.405Z,36544.00
2018-02-18T11:55:05.397Z,34880.00
2018-02-18T11:56:05.403Z,34816.00
2018-02-18T11:57:05.379Z,37312.00
2018-02-18T11:58:05.372Z,37856.00
2018-02-18T11:59:05.362Z,37504.00
2018-02-18T12:00:05.368Z,36992.00
2018-02-18T12:01:05.348Z,36704.00
2018-02-18T12:02:05.336Z,36192.00
2018-02-18T12:03:05.329Z,36192.00
2018-02-18T12:04:05.319Z,34880.00
2018-02-18T12:05:05.307Z,33088.00
2018-02-18T12:06:05.313Z,32896.00
2018-02-18T12:07:05.314Z,33024.00
2018-02-18T12:08:05.282Z,32064.00
2018-02-18T12:09:05.276Z,31808.00
2018-02-18T12:10:05.265Z,35040.00
2018-02-18T12:11:05.255Z,35520.00
2018-02-18T12:12:05.247Z,36960.00
2018-02-18T12:13:05.253Z,36384.00
2018-02-18T12:14:05.229Z,37568.00
2018-02-18T12:15:05.953Z,37152.00
2018-02-18T12:16:05.212Z,36480.00
2018-02-18T12:17:05.207Z,24448.00
2018-02-18T12:18:05.221Z,35488.00
2018-02-18T12:19:05.189Z,33184.00
2018-02-18T12:20:05.175Z,30592.00
2018-02-18T12:21:05.171Z,26976.00
2018-02-18T12:22:05.165Z,33696.00
2018-02-18T12:23:05.156Z,26368.00
2018-02-18T12:24:05.160Z,34688.00
2018-02-18T12:25:05.138Z,36416.00
2018-02-18T12:26:05.129Z,37152.00
2018-02-18T12:27:05.122Z,36576.00
2018-02-18T12:28:05.130Z,22816.00
2018-02-18T12:29:05.124Z,37792.00
2018-02-18T12:30:05.114Z,38624.00
2018-02-18T12:31:05.091Z,38752.00
2018-02-18T12:32:05.086Z,38752.00
2018-02-18T12:33:05.081Z,37792.00
2018-02-18T12:34:05.083Z,36960.00
2018-02-18T12:35:05.078Z,37760.00
2018-02-18T12:36:05.053Z,37568.00
2018-02-18T12:37:05.052Z,37440.00
2018-02-18T12:38:05.043Z,38080.00
2018-02-18T12:39:05.030Z,25664.00